Pointe Aux Barques, Michigan
Current Conditions -  °F | °C
As of 3:15 PM on Sunday 25 Jan 2015 (Local Time) from KBAX Reporting Station
Broken Clouds Broken Clouds  
Wind Chill:   Ceiling: 2400
Heat Index: 19°   Visibility: 10mi
Dew Point: 11°   Wind: 9mph
Humidity: 72%   Direction: 70°ENE
Pressure: 29.98"   Gusts: NA
Location:  44.0077°N, 82.9857°W
Report Text: KBAX 252015Z AUTO 07008KT 10SM BKN024 M07/M11 A2998 RMK AO2 T10721115
Loading
Personal Weather Stations






























Interactive Weather Map New forecast layout! Learn more

10-Day Weather Forecast

Advertisements
Track Severe Weather on mobile